Holts Summit, MO

6:01 AM CST on January 27, 2015 (GMT -0600)
Jefferson City Memorial | Change Station
CLOSE
Current Station
Airport
Location: Jefferson City,
Elevation: 548 ft
Nearby Weather Stations

Elev 548 ft 38.59 °N, 92.16 °W | Updated 8 minutes ago

Clear
Clear
29 °F
Feels Like 25 °F
N
4
Wind Variable Wind from NW

Today
High -- | Low -- °F
--% Chance of Precip.
Yesterday
High -- | Low -- °F
Precip. -- in
7:18 AM 5:24 PM
First Quarter, 53% visible
Pressure 30.07 in
Visibility 10.0 miles
Clouds Clear
Windchill 25 °F
Dew Point 28 °F
Humidity 96%
Rainfall 0.00 in
Snow Depth Not available.
UV 0 out of 12
Pollen .20 out of 12
Air Quality Not available.
Flu Activity Not available.
METAR KJEF 271153Z AUTO 31003KT 10SM CLR M02/M02 A3009 RMK AO2 SLP182 T10171022 10022 21017 53022

More Conditions Fewer Conditions

Pressure 30.07 in
Visibility 10.0 miles
Clouds Clear
Windchill 25 °F
Dew Point 28 °F
Humidity 96%
Rainfall 0.00 in
Snow Depth Not available.
UV 0 out of 12
Pollen .20 out of 12
Air Quality Not available.
Flu Activity Not available.
METAR KJEF 271153Z AUTO 31003KT 10SM CLR M02/M02 A3009 RMK AO2 SLP182 T10171022 10022 21017 53022

More Conditions Fewer Conditions

10-Day Weather Forecast

Almanac

Astronomy

Jan. 27, 2015 Rise Set
Actual Time
Civil Twilight
Nautical Twilight
Astronomical Twilight
Moon
Length of Visible Light
Length of Day
Tomorrow will be .
, % of the Moon is Illuminated

Today's Extremes

State Highs State Lows

Community

WunderPhotos

Upload Photos

1,790,566 photos uploaded!

WunderBlogs® & News

Nearby

Air Quality

  Air Quality AQ Index Pollutant
Not available.

Snow Depth

Station Depth Elevation

Earthquake Activity

City Distance Mag. Time & Date
Minimum magnitude displayed is 2.5.

Coastal Water Temperatures

Place Temperature

Nearby Weather Stations